Time;durP1;ratioP1;P1;durP2;ratioP2;P2;SDS_P1;SDS_P2;PMS_P1;PMS_P2;Temp;Humidity;BMP_temperature;BMP_pressure;BME280_temperature;BME280_humidity;BME280_pressure;Samples;Min_cycle;Max_cycle;Signal;HPM_P1;HPM_P2
2023/10/07 00:01:22;;;;;;;;;24.25;19.75;;;;;21.29;71.04;101086.28;5054724;28;45445;-75
2023/10/07 00:03:50;;;;;;;;;20.25;19.00;;;;;21.29;71.19;101088.94;5056482;28;45486;-75
2023/10/07 00:06:16;;;;;;;;;23.25;19.25;;;;;21.28;70.69;101089.84;5054727;28;45371;-74
2023/10/07 00:08:42;;;;;;;;;18.50;17.75;;;;;21.23;70.89;101088.13;5057533;28;45508;-73
2023/10/07 00:11:16;;;;;;;;;19.25;18.50;;;;;21.23;70.75;101092.56;5070637;28;45494;-73
2023/10/07 00:13:42;;;;;;;;;20.75;18.75;;;;;21.19;71.62;101082.84;5074751;28;45575;-73
2023/10/07 00:16:14;;;;;;;;;25.00;20.25;;;;;21.20;71.41;101090.78;5063114;28;45372;-75
2023/10/07 00:18:40;;;;;;;;;20.50;20.50;;;;;21.18;71.71;101089.03;5068667;28;45513;-75
2023/10/07 00:21:13;;;;;;;;;20.50;18.75;;;;;21.13;72.07;101089.06;5053738;28;45437;-75
2023/10/07 00:23:42;;;;;;;;;20.25;20.00;;;;;21.13;71.13;101082.84;5071221;28;45303;-73
2023/10/07 00:26:10;;;;;;;;;26.50;24.00;;;;;21.01;71.41;101070.53;5060066;28;45465;-75
2023/10/07 00:28:36;;;;;;;;;26.00;25.25;;;;;21.09;71.59;101082.00;5060128;28;45227;-74
2023/10/07 00:31:22;;;;;;;;;26.50;23.00;;;;;21.01;71.55;101075.84;5071163;28;45406;-75
2023/10/07 00:34:02;;;;;;;;;23.25;22.25;;;;;20.85;71.48;101057.31;5061749;28;45398;-75
2023/10/07 00:38:59;;;;;;;;;18.00;17.00;;;;;21.00;71.02;101084.69;5069594;28;45533;-75
2023/10/07 00:41:36;;;;;;;;;18.50;16.75;;;;;21.01;71.00;101083.81;5065562;28;45623;-75
2023/10/07 00:44:16;;;;;;;;;16.00;14.75;;;;;20.76;71.03;101040.53;5067049;28;45473;-75
2023/10/07 00:46:44;;;;;;;;;24.25;21.50;;;;;21.00;70.53;101082.03;5063984;28;45535;-75
2023/10/07 00:49:20;;;;;;;;;20.00;19.50;;;;;20.97;70.22;101076.72;5048308;28;45503;-73
2023/10/07 00:51:49;;;;;;;;;21.25;19.50;;;;;21.01;70.03;101083.81;5062611;28;45414;-73
2023/10/07 00:59:49;;;;;;;;;18.75;18.75;;;;;20.91;70.99;101064.38;5066668;28;45522;-75
2023/10/07 01:02:17;;;;;;;;;17.75;16.00;;;;;20.89;70.79;101063.50;5055319;28;45599;-73
2023/10/07 01:04:42;;;;;;;;;23.25;18.50;;;;;20.87;70.99;101065.28;5070161;28;45578;-74
2023/10/07 01:07:13;;;;;;;;;17.00;15.25;;;;;20.89;70.66;101059.94;5060521;28;45963;-74
2023/10/07 01:09:39;;;;;;;;;20.00;18.00;;;;;20.94;70.89;101064.34;5052976;28;45455;-75
2023/10/07 01:12:08;;;;;;;;;21.00;18.25;;;;;20.96;70.80;101057.25;5071417;28;45379;-75
2023/10/07 01:14:35;;;;;;;;;19.50;18.25;;;;;20.96;70.45;101062.56;5070875;28;45945;-75
2023/10/07 01:17:03;;;;;;;;;19.75;18.50;;;;;20.90;71.31;101051.97;5052522;28;46435;-75
2023/10/07 01:19:43;;;;;;;;;20.25;18.00;;;;;20.75;71.08;101028.13;5057733;28;45273;-75
2023/10/07 01:22:18;;;;;;;;;26.00;21.75;;;;;20.83;71.12;101027.22;5048739;28;45252;-75
2023/10/07 01:24:46;;;;;;;;;21.00;18.50;;;;;20.89;70.84;101036.94;5069673;28;45419;-75
2023/10/07 01:27:29;;;;;;;;;17.33;16.67;;;;;20.83;70.50;101034.28;5059632;28;45376;-75
2023/10/07 01:30:13;;;;;;;;;15.25;15.00;;;;;20.86;70.86;101040.47;5058477;28;45468;-75
2023/10/07 01:32:49;;;;;;;;;19.75;18.50;;;;;20.78;70.92;101036.97;5060809;28;45556;-75
2023/10/07 01:35:25;;;;;;;;;17.00;16.25;;;;;20.69;71.30;101028.16;5058886;28;45359;-75
2023/10/07 01:38:06;;;;;;;;;17.25;16.75;;;;;20.64;71.38;101039.69;5067955;28;45452;-74
2023/10/07 01:40:55;;;;;;;;;17.50;15.50;;;;;20.62;71.16;101035.28;5070731;28;45550;-75
2023/10/07 01:43:19;;;;;;;;;18.50;18.25;;;;;20.53;72.17;101035.25;5064605;28;45395;-75
2023/10/07 01:45:47;;;;;;;;;20.00;17.25;;;;;20.36;72.24;101012.31;5050363;28;45378;-75
2023/10/07 01:48:13;;;;;;;;;18.00;17.25;;;;;20.34;71.63;101024.69;5067148;28;45577;-75
2023/10/07 01:50:40;;;;;;;;;18.25;17.00;;;;;20.22;71.21;101012.34;5068646;28;45576;-75
2023/10/07 01:53:09;;;;;;;;;22.25;17.50;;;;;20.20;71.21;101026.50;5058600;28;45553;-75
2023/10/07 01:55:36;;;;;;;;;18.50;17.75;;;;;20.08;72.10;101022.09;5066924;28;45501;-74
2023/10/07 01:58:01;;;;;;;;;18.00;17.50;;;;;20.10;72.51;101027.41;5059077;28;46604;-73
2023/10/07 02:00:44;;;;;;;;;17.75;17.75;;;;;19.99;72.15;100999.13;5074091;28;45613;-75
2023/10/07 02:03:13;;;;;;;;;15.75;15.25;;;;;20.11;72.13;101015.91;5069188;28;45512;-75
2023/10/07 02:05:40;;;;;;;;;16.75;16.50;;;;;20.03;71.81;101003.56;5071394;28;45612;-74
2023/10/07 02:08:18;;;;;;;;;16.75;16.25;;;;;19.99;71.44;101000.91;5066237;28;45380;-75
2023/10/07 02:10:46;;;;;;;;;19.25;17.50;;;;;20.05;71.43;101006.19;5065689;28;45317;-75
2023/10/07 02:13:18;;;;;;;;;14.25;14.25;;;;;20.03;71.11;101008.88;5063804;28;45501;-75
2023/10/07 02:15:44;;;;;;;;;16.00;15.50;;;;;19.98;71.03;101012.41;5060223;28;45591;-75
2023/10/07 02:18:16;;;;;;;;;14.00;12.75;;;;;19.90;71.59;101008.88;5058863;28;45401;-75
2023/10/07 02:21:07;;;;;;;;;15.00;14.00;;;;;19.90;71.63;101006.22;5070631;28;45734;-74
2023/10/07 02:23:37;;;;;;;;;15.75;14.50;;;;;19.89;71.52;101005.31;5066885;28;45582;-75
2023/10/07 02:26:32;;;;;;;;;18.00;17.00;;;;;19.86;71.68;101000.91;5061891;28;45366;-74
2023/10/07 02:29:06;;;;;;;;;15.75;15.75;;;;;19.92;71.51;101004.47;5063242;28;45528;-75
2023/10/07 02:31:41;;;;;;;;;15.00;14.00;;;;;19.89;71.72;100997.38;5068380;28;45474;-75
2023/10/07 02:34:09;;;;;;;;;15.75;14.50;;;;;19.86;70.92;100985.00;5057940;28;45507;-75
2023/10/07 02:36:39;;;;;;;;;12.75;12.75;;;;;19.87;71.15;100983.22;5057855;28;45407;-73
2023/10/07 02:39:26;;;;;;;;;14.75;13.00;;;;;19.81;71.23;100968.22;5057671;28;46242;-73
2023/10/07 02:41:53;;;;;;;;;17.25;16.25;;;;;19.95;71.39;100988.53;5039479;28;45493;-75
2023/10/07 02:44:28;;;;;;;;;17.25;17.00;;;;;19.97;71.52;101000.91;5068337;28;45456;-75
2023/10/07 02:46:56;;;;;;;;;16.25;15.75;;;;;20.00;71.53;100992.94;5078174;28;45367;-75
2023/10/07 02:49:22;;;;;;;;;18.00;17.75;;;;;20.02;71.63;100995.59;5076704;28;46434;-74
2023/10/07 02:51:58;;;;;;;;;21.50;18.00;;;;;19.96;71.22;100985.88;5075820;28;45422;-74
2023/10/07 02:54:32;;;;;;;;;18.25;18.25;;;;;19.99;71.57;100998.25;5077477;28;45461;-75
2023/10/07 02:57:09;;;;;;;;;17.50;16.50;;;;;19.97;71.31;100992.94;5070067;28;45575;-74
2023/10/07 02:59:36;;;;;;;;;17.25;17.00;;;;;19.97;70.74;100990.28;5068428;28;46357;-74
2023/10/07 03:07:41;;;;;;;;;17.50;16.25;;;;;19.93;72.07;100985.00;5064293;28;45482;-74
2023/10/07 03:10:18;;;;;;;;;16.75;16.75;;;;;19.93;71.71;100985.88;5076044;28;45620;-75
2023/10/07 03:12:48;;;;;;;;;17.00;16.00;;;;;19.92;72.15;100984.13;5057964;28;45430;-75
2023/10/07 03:15:29;;;;;;;;;17.50;17.50;;;;;19.91;72.19;100981.47;5076229;28;45398;-74
2023/10/07 03:17:55;;;;;;;;;16.50;16.00;;;;;19.72;71.46;100970.03;5058901;28;45314;-75
2023/10/07 03:28:20;;;;;;;;;17.00;16.00;;;;;19.67;71.37;100978.78;5076528;28;45256;-75
2023/10/07 03:30:55;;;;;;;;;18.00;17.75;;;;;19.73;72.77;100983.25;5060592;28;46184;-75
2023/10/07 03:38:34;;;;;;;;;18.00;18.00;;;;;19.86;73.01;100986.78;5063377;28;45373;-74
2023/10/07 03:41:00;;;;;;;;;19.25;18.00;;;;;19.82;72.50;100985.03;5057672;28;46325;-75
2023/10/07 03:43:26;;;;;;;;;20.25;18.25;;;;;19.85;72.48;100988.53;5052064;28;45514;-75
2023/10/07 03:45:56;;;;;;;;;16.75;16.75;;;;;19.89;72.70;100999.16;5072044;28;45426;-74
2023/10/07 03:48:30;;;;;;;;;22.75;20.00;;;;;19.88;72.17;100984.13;5079159;27;45512;-75
2023/10/07 03:51:08;;;;;;;;;22.25;19.75;;;;;19.86;72.20;100998.28;5073161;27;45555;-75
2023/10/07 03:53:44;;;;;;;;;17.00;17.00;;;;;19.86;72.12;100992.97;5069239;28;45320;-76
2023/10/07 03:56:12;;;;;;;;;16.75;16.50;;;;;19.72;72.24;100980.63;5071812;28;45592;-76
2023/10/07 03:58:38;;;;;;;;;19.00;17.00;;;;;19.75;72.47;100991.22;5070851;28;45557;-75
2023/10/07 04:01:11;;;;;;;;;21.25;20.00;;;;;19.87;72.26;101001.78;5079904;28;45426;-75
2023/10/07 04:03:46;;;;;;;;;18.75;18.00;;;;;19.82;72.08;100999.16;5062583;28;45510;-72
2023/10/07 04:06:13;;;;;;;;;19.00;17.00;;;;;19.86;71.85;100992.09;5061734;28;45522;-74
2023/10/07 04:08:40;;;;;;;;;20.00;18.00;;;;;19.94;71.97;101005.34;5079473;28;45316;-72
2023/10/07 04:11:19;;;;;;;;;18.25;16.25;;;;;19.91;71.57;100990.28;5057857;28;46848;-73
2023/10/07 04:13:46;;;;;;;;;15.33;15.33;;;;;19.93;71.55;100991.19;5064123;28;45384;-73
2023/10/07 04:16:25;;;;;;;;;17.00;16.00;;;;;19.89;71.79;100988.53;5075989;28;45580;-73
2023/10/07 04:19:06;;;;;;;;;17.67;16.33;;;;;19.91;71.58;100992.94;5050609;28;45480;-74
2023/10/07 04:21:39;;;;;;;;;17.50;15.75;;;;;19.86;71.69;100970.88;5063649;28;45344;-74
2023/10/07 04:24:09;;;;;;;;;19.25;18.50;;;;;19.78;71.77;100970.88;5064744;28;45220;-73
2023/10/07 04:26:39;;;;;;;;;20.00;18.00;;;;;19.74;72.43;100981.50;5076620;28;45295;-73
2023/10/07 04:29:14;;;;;;;;;17.25;16.50;;;;;19.55;71.99;100943.47;5068892;28;45419;-75
2023/10/07 04:31:53;;;;;;;;;16.50;16.50;;;;;19.50;72.05;100932.91;5040697;28;46174;-73
2023/10/07 04:34:23;;;;;;;;;16.50;14.50;;;;;19.77;72.18;100974.41;5058465;28;45498;-73
2023/10/07 04:42:23;;;;;;;;;16.00;14.75;;;;;19.66;73.45;100958.50;5051680;28;46021;-75
2023/10/07 04:47:38;;;;;;;;;18.50;15.75;;;;;19.52;73.51;100959.38;5059507;28;45336;-75
2023/10/07 04:52:31;;;;;;;;;16.00;14.50;;;;;19.52;73.85;100954.97;5073896;28;45870;-74
2023/10/07 04:55:01;;;;;;;;;16.25;14.00;;;;;19.56;73.67;100964.69;5058263;28;45572;-73
2023/10/07 05:00:36;;;;;;;;;17.00;16.00;;;;;19.60;73.64;100963.81;5077571;28;45488;-73
2023/10/07 05:03:16;;;;;;;;;20.25;17.75;;;;;19.60;73.98;100957.63;5052775;28;45546;-73
2023/10/07 05:05:45;;;;;;;;;20.00;18.50;;;;;19.62;74.46;100959.38;5041876;28;45641;-73
2023/10/07 05:08:11;;;;;;;;;18.75;15.50;;;;;19.59;74.41;100948.75;5059652;28;45568;-74
2023/10/07 05:10:50;;;;;;;;;17.75;15.75;;;;;19.68;74.39;100953.19;5064989;27;45447;-75
2023/10/07 05:13:16;;;;;;;;;20.00;17.75;;;;;19.78;74.00;100962.06;5073046;28;47068;-75
2023/10/07 05:15:42;;;;;;;;;19.75;17.50;;;;;19.79;73.78;100945.25;5053311;28;45343;-75
2023/10/07 05:18:12;;;;;;;;;18.00;17.00;;;;;19.86;73.45;100953.19;5078442;28;45462;-75
2023/10/07 05:20:41;;;;;;;;;16.00;16.00;;;;;19.84;73.25;100944.38;5078438;28;45276;-75
2023/10/07 05:23:07;;;;;;;;;16.50;16.00;;;;;19.94;72.71;100953.19;5049655;28;48059;-75
2023/10/07 05:25:42;;;;;;;;;15.50;15.50;;;;;19.92;72.90;100951.44;5058284;28;45578;-75
2023/10/07 05:28:11;;;;;;;;;16.50;16.25;;;;;19.88;72.50;100947.03;5070063;27;45478;-75
2023/10/07 05:30:54;;;;;;;;;17.00;17.00;;;;;19.86;72.05;100950.53;5078238;28;45499;-75
2023/10/07 05:33:26;;;;;;;;;17.50;15.50;;;;;19.80;71.88;100952.34;5077577;28;46281;-74
2023/10/07 05:35:58;;;;;;;;;15.75;15.00;;;;;19.72;71.87;100960.28;5074655;28;45370;-75
2023/10/07 05:38:25;;;;;;;;;16.00;15.75;;;;;19.57;72.00;100945.25;5072292;28;45250;-73
2023/10/07 05:40:54;;;;;;;;;17.25;17.25;;;;;19.55;72.12;100956.72;5050957;28;45534;-74
2023/10/07 05:43:21;;;;;;;;;16.25;15.00;;;;;19.42;72.33;100953.22;5058205;28;45504;-74
2023/10/07 05:45:47;;;;;;;;;16.50;16.00;;;;;19.37;72.57;100958.50;5073975;28;45330;-74
2023/10/07 05:48:12;;;;;;;;;16.75;15.25;;;;;19.25;72.56;100954.06;5058428;28;45627;-74
2023/10/07 05:50:38;;;;;;;;;15.00;15.00;;;;;19.22;72.66;100959.38;5069762;27;45732;-74
2023/10/07 05:53:04;;;;;;;;;15.25;14.75;;;;;19.11;72.77;100960.25;5067340;27;45379;-74
2023/10/07 05:55:34;;;;;;;;;17.25;16.25;;;;;19.00;72.39;100952.25;5062938;27;45375;-74
2023/10/07 05:58:04;;;;;;;;;17.25;16.25;;;;;19.00;73.38;100955.81;5071582;27;45531;-74
2023/10/07 06:00:33;;;;;;;;;18.00;17.75;;;;;18.98;73.06;100951.38;5082842;27;45384;-73
2023/10/07 06:03:05;;;;;;;;;17.00;15.50;;;;;19.00;73.75;100957.56;5087381;27;46038;-74
2023/10/07 06:05:32;;;;;;;;;17.75;17.00;;;;;19.01;73.55;100962.00;5085398;27;45566;-74
2023/10/07 06:07:59;;;;;;;;;20.00;16.00;;;;;19.00;73.17;100958.47;5058701;28;45250;-73
2023/10/07 06:10:25;;;;;;;;;16.75;16.00;;;;;19.04;72.84;100970.81;5062860;27;45625;-74
2023/10/07 06:12:54;;;;;;;;;14.00;14.00;;;;;18.91;73.01;100954.91;5078266;27;45519;-74
2023/10/07 06:15:23;;;;;;;;;17.50;17.00;;;;;18.93;73.05;100969.91;5067597;27;45404;-73
2023/10/07 06:17:49;;;;;;;;;15.75;15.00;;;;;18.97;73.88;100971.69;5058889;28;45782;-72
2023/10/07 06:20:15;;;;;;;;;18.25;16.75;;;;;18.87;73.77;100960.19;5077435;27;45452;-74
2023/10/07 06:22:45;;;;;;;;;19.25;15.25;;;;;18.99;73.66;100977.00;5086803;27;45509;-73
2023/10/07 06:25:18;;;;;;;;;16.75;15.50;;;;;18.99;73.84;100969.91;5073918;27;45573;-74
2023/10/07 06:27:43;;;;;;;;;18.00;15.75;;;;;19.00;73.39;100966.41;5059574;28;45390;-75
2023/10/07 06:30:20;;;;;;;;;16.50;15.75;;;;;19.06;73.28;100962.91;5061965;27;45448;-73
2023/10/07 06:32:54;;;;;;;;;21.50;20.50;;;;;19.12;72.68;100973.50;5081501;27;45334;-73
2023/10/07 06:35:23;;;;;;;;;29.25;28.00;;;;;19.19;72.92;100985.84;5056235;27;45615;-74
2023/10/07 06:37:57;;;;;;;;;19.50;18.25;;;;;19.23;72.43;100982.31;5071678;27;45538;-73
2023/10/07 06:40:25;;;;;;;;;14.75;14.25;;;;;19.25;72.52;100977.03;5068934;27;45759;-75
2023/10/07 06:42:53;;;;;;;;;14.75;13.75;;;;;19.24;72.57;100976.16;5077579;27;45991;-73
2023/10/07 06:45:18;;;;;;;;;16.00;14.75;;;;;19.35;72.52;100988.53;5084052;27;45447;-73
2023/10/07 06:47:48;;;;;;;;;15.00;15.00;;;;;19.27;72.28;100962.91;5080855;27;45498;-74
2023/10/07 06:50:19;;;;;;;;;17.75;16.25;;;;;19.36;72.08;100979.69;5067961;27;45561;-73
2023/10/07 06:52:47;;;;;;;;;17.25;16.75;;;;;19.36;72.06;100980.59;5081877;27;45529;-73
2023/10/07 06:55:15;;;;;;;;;17.50;16.50;;;;;19.45;72.54;100971.75;5057681;28;45677;-72
2023/10/07 06:57:47;;;;;;;;;16.00;16.00;;;;;19.52;72.34;100977.91;5080964;27;45380;-74
2023/10/07 07:00:37;;;;;;;;;15.25;15.25;;;;;19.65;72.48;100980.56;5080098;27;45651;-75
2023/10/07 07:03:09;;;;;;;;;19.50;18.75;;;;;19.75;72.75;100991.22;5068163;27;46310;-74
2023/10/07 07:05:35;;;;;;;;;27.25;26.25;;;;;19.74;72.28;100973.56;5078338;27;45380;-74
2023/10/07 07:08:03;;;;;;;;;22.00;21.00;;;;;19.88;72.01;100992.09;5049051;28;45476;-73
2023/10/07 07:10:31;;;;;;;;;19.00;18.00;;;;;19.90;71.27;100996.50;5083261;27;45611;-73
2023/10/07 07:13:04;;;;;;;;;19.00;18.50;;;;;19.95;70.77;100996.50;5062942;27;47104;-74
2023/10/07 07:15:36;;;;;;;;;23.75;22.00;;;;;20.01;71.22;101001.78;5084519;27;45516;-74
2023/10/07 07:20:49;;;;;;;;;26.50;25.00;;;;;20.22;70.35;101000.88;5087853;27;45407;-75
2023/10/07 07:23:16;;;;;;;;;22.25;21.00;;;;;20.34;70.29;100997.28;5079171;27;46462;-73
2023/10/07 07:26:06;;;;;;;;;18.00;17.50;;;;;20.51;69.80;101008.72;5092453;27;45749;-74
2023/10/07 07:28:31;;;;;;;;;22.25;17.25;;;;;20.64;69.50;101018.44;5087119;27;45579;-75
2023/10/07 07:30:57;;;;;;;;;25.00;24.00;;;;;20.88;69.92;101007.72;5059543;28;45921;-74
2023/10/07 07:33:28;;;;;;;;;15.25;14.75;;;;;22.26;67.82;101019.09;5071130;27;45390;-72
2023/10/07 07:35:56;;;;;;;;;18.75;17.50;;;;;24.27;63.51;101008.13;5056623;28;45494;-72
2023/10/07 07:43:51;;;;;;;;;12.00;12.00;;;;;29.11;51.51;101008.38;5078947;27;45495;-73
2023/10/07 07:48:44;;;;;;;;;11.00;11.00;;;;;31.05;45.98;100992.72;5071662;28;45436;-75
2023/10/07 07:51:11;;;;;;;;;8.00;7.33;;;;;31.88;43.99;101007.50;5056908;28;45406;-75
2023/10/07 07:53:39;;;;;;;;;11.33;11.33;;;;;32.50;43.13;101015.97;5054496;28;45355;-76
2023/10/07 07:56:08;;;;;;;;;11.00;11.00;;;;;32.86;41.03;101016.75;5074824;28;45483;-74
2023/10/07 07:58:37;;;;;;;;;11.00;11.00;;;;;32.97;40.00;101022.44;5071280;28;45534;-73
2023/10/07 08:01:05;;;;;;;;;7.67;7.67;;;;;33.59;39.17;101014.38;5065632;28;45373;-75
2023/10/07 08:03:35;;;;;;;;;10.00;9.67;;;;;33.81;38.70;101019.41;5043811;28;46420;-75
2023/10/07 08:06:04;;;;;;;;;8.67;8.67;;;;;34.41;38.44;101010.34;5071294;28;45593;-73
2023/10/07 08:08:30;;;;;;;;;9.00;9.00;;;;;34.77;37.21;101019.84;5037958;28;45564;-74
2023/10/07 08:10:58;;;;;;;;;12.00;10.67;;;;;35.07;37.30;101026.97;5054018;28;45606;-73
2023/10/07 08:13:29;;;;;;;;;11.00;11.00;;;;;35.25;35.93;101020.34;5054846;28;46153;-73
2023/10/07 08:15:56;;;;;;;;;10.00;9.33;;;;;35.43;35.44;101001.97;5069954;28;45672;-76
2023/10/07 08:18:31;;;;;;;;;10.33;9.33;;;;;35.73;35.57;101019.91;5043922;28;45397;-74
2023/10/07 08:21:13;;;;;;;;;8.00;8.00;;;;;35.88;34.45;101023.44;5076076;28;45573;-74
2023/10/07 08:23:51;;;;;;;;;8.00;7.67;;;;;35.94;34.44;101017.56;5056706;28;46614;-73
2023/10/07 08:26:23;;;;;;;;;8.00;8.00;;;;;36.45;33.83;101022.19;5075544;28;45596;-76
2023/10/07 08:31:37;;;;;;;;;7.33;7.33;;;;;37.28;33.83;101031.63;5075951;28;45466;-76
2023/10/07 08:36:36;;;;;;;;;9.00;9.00;;;;;37.59;32.07;101035.69;5061818;28;45439;-73
2023/10/07 08:39:08;;;;;;;;;9.67;9.00;;;;;37.26;31.95;101034.47;5078594;27;45302;-72
2023/10/07 08:41:35;;;;;;;;;9.00;9.00;;;;;37.04;33.10;101021.56;5055276;28;45522;-72
2023/10/07 08:44:13;;;;;;;;;6.67;6.00;;;;;37.29;33.29;101023.34;5077191;28;45529;-73
2023/10/07 08:46:52;;;;;;;;;8.00;7.00;;;;;37.36;32.52;101029.19;5058567;28;45478;-73
2023/10/07 08:49:26;;;;;;;;;7.33;7.00;;;;;36.98;33.07;101030.19;5047683;28;45525;-73
2023/10/07 08:51:56;;;;;;;;;9.67;8.33;;;;;37.30;33.80;101027.81;5055487;28;45781;-77
2023/10/07 08:54:37;;;;;;;;;8.00;8.00;;;;;37.70;31.85;101022.06;5072086;28;45569;-73
2023/10/07 08:57:19;;;;;;;;;8.33;7.67;;;;;37.80;31.82;101028.56;5067618;28;46143;-73
2023/10/07 08:59:52;;;;;;;;;8.33;8.33;;;;;38.05;32.55;101032.09;5050169;28;45275;-73
2023/10/07 09:02:30;;;;;;;;;7.33;6.67;;;;;38.20;32.89;101030.94;5045520;28;45547;-73
2023/10/07 09:04:59;;;;;;;;;16.00;13.67;;;;;38.34;31.98;101031.66;5059916;28;47082;-76
2023/10/07 09:07:31;;;;;;;;;16.67;15.67;;;;;38.34;31.65;101027.09;5071169;27;45501;-77
2023/10/07 09:10:06;;;;;;;;;28.75;27.75;;;;;38.34;32.37;101032.56;5061787;28;45576;-74
2023/10/07 09:12:38;;;;;;;;;46.50;39.00;;;;;38.48;32.39;101031.47;5074810;28;45430;-74
2023/10/07 09:15:12;;;;;;;;;45.00;36.50;;;;;38.64;32.43;101024.78;5054474;28;46815;-74
2023/10/07 09:17:41;;;;;;;;;38.75;32.75;;;;;38.81;32.49;101027.00;5041075;28;45308;-78
2023/10/07 09:20:18;;;;;;;;;7.00;7.00;;;;;38.73;32.13;101027.63;5073740;28;45630;-77
2023/10/07 09:22:53;;;;;;;;;10.33;9.67;;;;;38.42;32.14;101026.50;5077396;28;45668;-75
2023/10/07 09:25:29;;;;;;;;;8.00;7.67;;;;;38.13;32.68;101017.91;5078005;28;45358;-75
2023/10/07 09:28:01;;;;;;;;;8.00;7.33;;;;;37.76;32.04;101016.16;5060369;28;45321;-75
2023/10/07 09:33:17;;;;;;;;;10.33;10.00;;;;;37.92;32.64;101006.78;5078055;28;45447;-74
2023/10/07 09:35:49;;;;;;;;;12.67;12.00;;;;;37.99;32.75;101014.34;5077591;28;45395;-76
2023/10/07 09:38:41;;;;;;;;;8.00;6.67;;;;;37.73;32.11;101015.53;5061108;28;45518;-73
2023/10/07 09:41:12;;;;;;;;;6.00;5.67;;;;;37.56;32.16;101019.50;5067066;28;45442;-73
2023/10/07 09:43:51;;;;;;;;;6.33;6.33;;;;;37.48;31.80;101014.63;5058109;28;45232;-77
2023/10/07 09:46:27;;;;;;;;;8.00;7.00;;;;;37.54;31.22;100996.94;5057171;28;45348;-73
2023/10/07 09:48:59;;;;;;;;;6.00;6.00;;;;;37.51;31.61;101010.84;5066227;28;45510;-74
2023/10/07 09:51:47;;;;;;;;;7.00;6.67;;;;;37.57;30.91;101004.91;5059024;28;45496;-72
2023/10/07 09:54:47;;;;;;;;;6.00;6.00;;;;;37.21;32.32;101009.44;5076166;27;45634;-76
2023/10/07 09:58:00;;;;;;;;;7.33;7.33;;;;;37.32;32.86;101000.44;5061911;28;46127;-74
2023/10/07 10:01:28;;;;;;;;;10.00;9.67;;;;;37.06;32.83;101008.69;5042103;28;45610;-73
2023/10/07 10:04:11;;;;;;;;;8.00;8.00;;;;;36.90;34.23;101002.66;4974344;28;45466;-73
2023/10/07 10:06:52;;;;;;;;;8.33;8.33;;;;;36.74;34.72;101000.19;4974864;28;45519;-73
2023/10/07 10:09:27;;;;;;;;;9.00;7.33;;;;;36.93;33.83;101000.56;5041652;28;46221;-73
2023/10/07 10:14:57;;;;;;;;;7.67;7.67;;;;;37.08;34.28;100993.09;5057005;28;45503;-72
2023/10/07 10:17:48;;;;;;;;;7.00;7.00;;;;;36.91;35.22;100991.66;5070324;28;45400;-73
2023/10/07 10:20:18;;;;;;;;;7.00;7.00;;;;;36.81;35.22;100993.31;5060227;28;45445;-74
2023/10/07 10:23:00;;;;;;;;;6.00;5.67;;;;;36.60;36.41;101002.03;5067111;28;45372;-73
2023/10/07 10:25:36;;;;;;;;;8.00;8.00;;;;;36.55;35.88;100987.00;5067838;28;45545;-73
2023/10/07 10:28:07;;;;;;;;;8.33;8.33;;;;;36.61;35.46;100992.03;5061907;28;45496;-74
2023/10/07 10:30:33;;;;;;;;;8.67;8.67;;;;;36.73;35.60;100990.25;5078289;28;46442;-73
2023/10/07 10:33:00;;;;;;;;;16.00;14.67;;;;;36.89;36.13;100990.91;5063550;28;45489;-76
2023/10/07 10:35:32;;;;;;;;;9.33;9.33;;;;;36.85;35.39;100988.50;5048247;28;45405;-78
2023/10/07 10:37:59;;;;;;;;;28.75;27.75;;;;;36.89;35.76;100992.72;5054412;28;45579;-73
2023/10/07 10:40:31;;;;;;;;;5.00;5.00;;;;;37.00;35.89;100990.94;5075176;27;46178;-74
2023/10/07 10:42:58;;;;;;;;;10.00;9.00;;;;;36.63;35.00;100966.47;5065489;28;45549;-73
2023/10/07 10:45:26;;;;;;;;;8.00;7.67;;;;;36.51;36.37;100980.94;5063598;28;45137;-74
2023/10/07 10:47:55;;;;;;;;;10.00;8.67;;;;;36.58;36.70;100982.22;5067461;28;45429;-77
2023/10/07 10:50:28;;;;;;;;;8.00;6.33;;;;;36.50;36.49;100981.03;5041426;28;46377;-73
2023/10/07 10:52:59;;;;;;;;;8.00;8.00;;;;;36.43;36.12;100976.03;5056952;28;45304;-72
2023/10/07 10:55:25;;;;;;;;;10.33;9.67;;;;;36.16;36.34;100972.59;5048118;28;45464;-73
2023/10/07 10:57:52;;;;;;;;;8.00;8.00;;;;;35.77;35.25;100967.06;5044287;28;45599;-77
2023/10/07 11:00:22;;;;;;;;;7.33;7.33;;;;;35.88;36.67;100977.22;5057671;28;45547;-73
2023/10/07 11:02:52;;;;;;;;;7.00;6.00;;;;;35.88;36.45;100969.06;5069126;27;45885;-73
2023/10/07 11:05:22;;;;;;;;;8.67;8.33;;;;;35.82;35.51;100967.63;5067399;28;45535;-73
2023/10/07 11:07:50;;;;;;;;;10.00;10.00;;;;;35.68;36.84;100977.72;5062099;28;45508;-73
2023/10/07 11:10:23;;;;;;;;;29.50;26.50;;;;;35.70;35.99;100967.63;5073134;28;46151;-72
2023/10/07 11:12:56;;;;;;;;;9.00;7.67;;;;;35.57;34.60;100965.69;5057911;28;45370;-73
2023/10/07 11:15:25;;;;;;;;;9.33;8.67;;;;;35.38;34.79;100962.53;5062957;28;45501;-73
2023/10/07 11:17:56;;;;;;;;;7.00;7.00;;;;;35.35;35.21;100966.28;5048828;28;45561;-72
2023/10/07 11:20:35;;;;;;;;;4.33;4.33;;;;;35.11;34.44;100946.19;5074655;28;45192;-77
2023/10/07 11:23:02;;;;;;;;;4.33;4.00;;;;;34.98;34.94;100962.44;5049057;28;45346;-77
2023/10/07 11:25:28;;;;;;;;;3.33;3.00;;;;;34.88;33.37;100961.28;5056283;28;45584;-72
2023/10/07 11:27:54;;;;;;;;;4.00;3.33;;;;;34.73;33.66;100966.75;5052533;28;45628;-75
2023/10/07 11:30:21;;;;;;;;;3.67;3.67;;;;;34.61;34.91;100965.66;5052771;28;47612;-72
2023/10/07 11:32:47;;;;;;;;;3.00;3.00;;;;;34.56;34.91;100961.50;5064615;28;45491;-72
2023/10/07 11:35:19;;;;;;;;;1.33;1.33;;;;;34.49;35.67;100957.47;5062803;28;45506;-73
2023/10/07 11:37:58;;;;;;;;;4.67;4.67;;;;;34.43;36.39;100950.59;5037991;28;45465;-73
2023/10/07 11:40:30;;;;;;;;;5.00;5.00;;;;;34.29;36.22;100947.88;5075241;28;45408;-72
2023/10/07 11:43:04;;;;;;;;;4.00;4.00;;;;;34.17;36.13;100934.13;5045784;28;45639;-73
2023/10/07 11:45:36;;;;;;;;;3.33;3.33;;;;;34.20;36.13;100944.78;5071662;28;45464;-72
2023/10/07 11:48:05;;;;;;;;;3.67;3.67;;;;;34.11;35.72;100939.91;5075525;28;45366;-72
2023/10/07 11:50:35;;;;;;;;;5.00;5.00;;;;;34.08;36.04;100930.13;5075023;28;45461;-73
2023/10/07 11:53:04;;;;;;;;;5.33;4.33;;;;;33.94;36.31;100926.53;5041740;28;45529;-72
2023/10/07 11:55:31;;;;;;;;;5.00;4.00;;;;;33.98;35.86;100930.78;5070421;28;45227;-72
2023/10/07 11:58:00;;;;;;;;;4.33;4.33;;;;;33.90;36.70;100917.69;5041899;28;45443;-74
2023/10/07 12:00:30;;;;;;;;;4.67;4.33;;;;;33.87;36.12;100916.06;5066435;28;45695;-73
2023/10/07 12:02:57;;;;;;;;;5.33;5.33;;;;;33.91;36.55;100905.03;5056119;28;45453;-75
2023/10/07 12:05:27;;;;;;;;;5.00;4.67;;;;;33.90;35.89;100914.13;5060425;28;45617;-73
2023/10/07 12:07:55;;;;;;;;;5.67;5.67;;;;;33.98;35.83;100903.69;5071504;27;45554;-72
2023/10/07 12:10:22;;;;;;;;;4.00;3.00;;;;;33.86;36.17;100903.50;5040044;28;47390;-73
2023/10/07 12:12:52;;;;;;;;;5.67;4.33;;;;;33.95;35.62;100904.75;5058944;28;45198;-73
2023/10/07 12:15:18;;;;;;;;;5.00;5.00;;;;;33.97;35.64;100894.69;5057002;28;45512;-77
2023/10/07 12:17:49;;;;;;;;;8.00;7.00;;;;;34.15;35.43;100895.38;5058917;28;45383;-72
2023/10/07 12:20:19;;;;;;;;;5.00;5.00;;;;;34.17;35.23;100888.03;5076801;28;45574;-73
2023/10/07 12:22:46;;;;;;;;;5.00;5.00;;;;;34.01;35.60;100877.25;5053396;28;45521;-73
2023/10/07 12:25:16;;;;;;;;;10.67;10.00;;;;;33.98;35.15;100887.41;5052938;28;45516;-77
2023/10/07 12:27:48;;;;;;;;;6.00;6.00;;;;;33.94;36.24;100880.44;5078636;28;45279;-74
2023/10/07 12:30:21;;;;;;;;;5.67;4.33;;;;;33.88;35.11;100884.41;5063484;28;45634;-73
2023/10/07 12:32:50;;;;;;;;;3.00;3.00;;;;;33.77;34.71;100878.81;5078236;27;45240;-77
2023/10/07 12:35:17;;;;;;;;;8.00;6.00;;;;;33.76;34.90;100867.06;5076149;28;45298;-72
2023/10/07 12:37:49;;;;;;;;;4.33;4.33;;;;;33.91;35.38;100883.38;5078988;28;45442;-72